KAST

Astoria Regional Airport

Astoria, Oregon, USA
METAR KAST 191955Z AUTO 34009KT 10SM CLR 21/16 A3006 RMK AO2 SLP178 T02060156
Observed Flight Rules
Jun-19 @ 19:55 UTC (21 minutes ago) Visual Flight Rules
Wind Visibility Clouds
340° at 9 knots 10 miles
  • Clear skies
Temperatures Readings
Current 21°C / 70°F
Dewpoint 16°C / 61°F
Humidity 73%
Altimeter 30.06" Hg
Pressure 1017.8 hPa
Elevation 3
METAR KAST 191955Z AUTO 34009KT 10SM CLR 21/16 A3006 RMK AO2 SLP178 T02060156
Observed Flight Rules
Jun-19 @ 19:55 UTC
(21 minutes ago)
VFR
Wind Visibility
340° at 9 knots 10 miles
Clouds
  • Clear skies
Temperature Dewpoint
21°C / 70°F 16°C / 61°F
Humidity Altimeter Pressure
73% 30.06" Hg 1017.8 hPa